Thunder radar more information blitzortung!


Radar de pluja more information rain snow radar


Visita la nostra xarxa de llocs de meteo:

Template documentation
and downloads

And another site



Wind From: 11-12-2017 11:00 Until: 14:59 warning for: Wind Level: Yellow info button

Pagina Historial Weather Underground text

Diari Resum Juny 16, 2017 Unitats:  Mètric    Imperial   Tant
« Previous Dia
SegĂźent Dia »
Diari Setmana Mensual Anual Personalitzada
  Maxima: Minima: Media:
Temperatura: 35.6 °C 22.9 °C 30.5 °C
Punt de rosada: 16.2 °C 8.6 °C 14.6 °C
Humitat: 64 % 28 % 40 %
Wind Speed: 18.5 km/h 0.0 km/h 8 km/h
RĂ fegues de vent: 18.5 km/h - -
Vent:- - SSW
Pression baro: 1017.8 hPa 1015.8 hPa -
Precipitacions: 0.0 mm    
Historical Graphs
 
 
Dades de taula per Juny 16, 2017
Temps Temperatura Punt de rosada Pression baro Vent Wind Speed RĂ fegues de vent Humitat Rainfall Rate (Hourly)
00:03 26.1 °C 8.6 °C 1015.8 hPa WNW 3.7 km/h 3.7 km/h 33 % 0.0 mm
04:15 27.9 °C 13.8 °C 1017.8 hPa Calm   3.2 km/h 42 % 0.0 mm
04:25 28.1 °C 14.0 °C 1017.8 hPa NE 3.2 km/h 4.8 km/h 42 % 0.0 mm
04:35 28.3 °C 13.8 °C 1017.8 hPa NE 1.6 km/h 4.8 km/h 41 % 0.0 mm
04:45 28.9 °C 14.3 °C 1017.8 hPa NE 3.2 km/h 6.4 km/h 41 % 0.0 mm
04:55 29.1 °C 14.1 °C 1017.8 hPa NE 3.2 km/h 6.4 km/h 40 % 0.0 mm
05:05 29.4 °C 14.4 °C 1017.8 hPa ENE 3.2 km/h 6.4 km/h 40 % 0.0 mm
10:15 29.5 °C 14.1 °C 1017.8 hPa ENE 7.4 km/h 7.4 km/h 39 % 0.0 mm
10:20 29.5 °C 13.7 °C 1017.8 hPa ENE 7.4 km/h 7.6 km/h 38 % 0.0 mm
10:25 29.6 °C 13.8 °C 1017.8 hPa NNE 9.3 km/h 9.3 km/h 38 % 0.0 mm
10:30 29.9 °C 14.1 °C 1017.8 hPa ENE 7.6 km/h 7.6 km/h 38 % 0.0 mm
10:35 30.0 °C 14.1 °C 1017.8 hPa NNE 7.4 km/h 7.4 km/h 38 % 0.0 mm
10:40 30.2 °C 14.3 °C 1017.8 hPa NE 11.1 km/h 11.1 km/h 38 % 0.0 mm
10:45 30.5 °C 14.6 °C 1017.8 hPa East 5.0 km/h 5.0 km/h 38 % 0.0 mm
10:50 30.6 °C 14.7 °C 1017.8 hPa East 5.8 km/h   38 % 0.0 mm
10:55 30.8 °C 14.4 °C 1017.8 hPa SSW 5.6 km/h 5.6 km/h 37 % 0.0 mm
11:00 31.2 °C 14.3 °C 1017.8 hPa West 5.6 km/h 5.6 km/h 36 % 0.0 mm
11:05 31.9 °C 15.0 °C 1017.8 hPa ESE 8.7 km/h 8.7 km/h 36 % 0.0 mm
11:10 31.6 °C 14.7 °C 1017.8 hPa SW 4.7 km/h 4.7 km/h 36 % 0.0 mm
11:15 31.8 °C 14.9 °C 1017.8 hPa NW 5.6 km/h 5.6 km/h 36 % 0.0 mm
11:20 31.5 °C 14.6 °C 1017.8 hPa NE 7.4 km/h 7.4 km/h 36 % 0.0 mm
11:25 32.2 °C 15.2 °C 1017.8 hPa WNW 3.9 km/h 3.9 km/h 36 % 0.0 mm
11:30 32.6 °C 15.2 °C 1017.8 hPa SSW 5.6 km/h 5.6 km/h 35 % 0.0 mm
11:35 32.2 °C 14.8 °C 1017.8 hPa SW 9.3 km/h 9.3 km/h 35 % 0.0 mm
11:40 32.5 °C 15.1 °C 1017.8 hPa SSW 3.7 km/h 3.7 km/h 35 % 0.0 mm
11:45 32.8 °C 14.9 °C 1017.8 hPa West 5.6 km/h 5.6 km/h 34 % 0.0 mm
11:50 33.4 °C 15.4 °C 1017.8 hPa South 5.0 km/h 5.0 km/h 34 % 0.0 mm
11:55 33.8 °C 15.3 °C 1017.8 hPa ESE 5.6 km/h 5.6 km/h 33 % 0.0 mm
12:00 33.0 °C 14.6 °C 1017.8 hPa WSW 11.1 km/h 11.1 km/h 33 % 0.0 mm
12:05 33.0 °C 14.6 °C 1017.8 hPa ESE 7.4 km/h 7.4 km/h 33 % 0.0 mm
12:10 32.7 °C 14.3 °C 1017.8 hPa SW 6.1 km/h 6.1 km/h 33 % 0.0 mm
12:15 33.3 °C 14.4 °C 1017.8 hPa SSE 9.3 km/h 9.3 km/h 32 % 0.0 mm
12:20 33.1 °C 14.2 °C 1017.8 hPa NW 7.4 km/h 7.4 km/h 32 % 0.0 mm
12:25 33.0 °C 14.1 °C 1017.8 hPa ENE 7.4 km/h 7.4 km/h 32 % 0.0 mm
12:30 33.3 °C 14.4 °C 1017.8 hPa North 5.6 km/h 5.6 km/h 32 % 0.0 mm
12:35 33.0 °C 15.1 °C 1017.8 hPa South 7.4 km/h 7.4 km/h 34 % 0.0 mm
12:40 33.1 °C 15.1 °C 1017.8 hPa ESE 9.3 km/h 9.3 km/h 34 % 0.0 mm
12:45 32.7 °C 15.2 °C 1016.8 hPa ESE 13.7 km/h 13.7 km/h 35 % 0.0 mm
12:50 32.1 °C 14.7 °C 1016.8 hPa ENE 11.1 km/h 11.1 km/h 35 % 0.0 mm
12:55 32.6 °C 15.6 °C 1016.8 hPa NNE 10.0 km/h 10.0 km/h 36 % 0.0 mm
13:00 33.3 °C 15.3 °C 1016.8 hPa WSW 14.8 km/h 14.8 km/h 34 % 0.0 mm
13:05 34.1 °C 15.1 °C 1016.8 hPa South 5.6 km/h 5.6 km/h 32 % 0.0 mm
13:10 34.4 °C 15.3 °C 1016.8 hPa SSW 5.6 km/h 5.6 km/h 32 % 0.0 mm
13:15 34.5 °C 15.4 °C 1016.8 hPa SSW 9.3 km/h 9.3 km/h 32 % 0.0 mm
13:20 34.9 °C 15.3 °C 1016.8 hPa SW 13.0 km/h 13.0 km/h 31 % 0.0 mm
13:25 34.8 °C 14.7 °C 1016.8 hPa SSW 5.6 km/h 5.6 km/h 30 % 0.0 mm
13:30 34.9 °C 14.8 °C 1016.8 hPa SSW 9.3 km/h 9.3 km/h 30 % 0.0 mm
13:35 35.6 °C 14.8 °C 1016.8 hPa SE 3.7 km/h 3.7 km/h 29 % 0.0 mm
13:40 34.8 °C 14.2 °C 1016.8 hPa South 18.5 km/h 18.5 km/h 29 % 0.0 mm
13:45 34.9 °C 14.8 °C 1016.8 hPa SW 9.3 km/h 9.3 km/h 30 % 0.0 mm
13:50 35.2 °C 14.5 °C 1016.8 hPa WSW 9.5 km/h 9.5 km/h 29 % 0.0 mm
13:55 34.7 °C 14.1 °C 1016.8 hPa SSW 16.7 km/h 16.7 km/h 29 % 0.0 mm
14:00 34.9 °C 14.2 °C 1016.8 hPa SSE 9.3 km/h 9.3 km/h 29 % 0.0 mm
14:05 35.4 °C 14.1 °C 1016.8 hPa SW 9.3 km/h 9.3 km/h 28 % 0.0 mm
14:10 35.1 °C 13.8 °C 1016.8 hPa West 9.3 km/h 9.3 km/h 28 % 0.0 mm
14:15 35.0 °C 13.8 °C 1016.8 hPa SSW 13.0 km/h 13.0 km/h 28 % 0.0 mm
14:20 34.8 °C 14.2 °C 1016.8 hPa SW 14.8 km/h 14.8 km/h 29 % 0.0 mm
14:25 34.2 °C 13.6 °C 1016.8 hPa SW 14.8 km/h 14.8 km/h 29 % 0.0 mm
14:30 34.7 °C 14.1 °C 1016.8 hPa SW 11.1 km/h 11.1 km/h 29 % 0.0 mm
14:35 34.5 °C 13.9 °C 1016.8 hPa WSW 11.1 km/h 11.1 km/h 29 % 0.0 mm
14:40 34.4 °C 13.8 °C 1016.8 hPa SSW 17.2 km/h 17.2 km/h 29 % 0.0 mm
14:45 34.6 °C 13.9 °C 1016.8 hPa WSW 13.0 km/h 13.0 km/h 29 % 0.0 mm
14:50 34.3 °C 13.7 °C 1016.8 hPa SSW 4.7 km/h 4.7 km/h 29 % 0.0 mm
14:55 34.4 °C 13.8 °C 1016.8 hPa SW 13.0 km/h 13.0 km/h 29 % 0.0 mm
15:00 34.6 °C 13.9 °C 1015.8 hPa WSW 11.1 km/h 11.1 km/h 29 % 0.0 mm
15:05 34.7 °C 14.1 °C 1015.8 hPa SSW 11.1 km/h 11.1 km/h 29 % 0.0 mm
15:10 34.6 °C 13.9 °C 1015.8 hPa SW 14.8 km/h 14.8 km/h 29 % 0.0 mm
15:15 34.3 °C 14.2 °C 1016.8 hPa West 7.4 km/h 7.4 km/h 30 % 0.0 mm
15:20 34.4 °C 13.8 °C 1016.8 hPa SSW 15.8 km/h 15.8 km/h 29 % 0.0 mm
15:25 34.3 °C 14.2 °C 1016.8 hPa WSW 14.0 km/h 14.0 km/h 30 % 0.0 mm
15:30 34.4 °C 14.3 °C 1015.8 hPa SW 9.3 km/h 9.3 km/h 30 % 0.0 mm
15:35 34.5 °C 14.4 °C 1015.8 hPa WSW 14.8 km/h 14.8 km/h 30 % 0.0 mm
15:37 34.4 °C 14.3 °C 1015.8 hPa NNW 9.3 km/h 9.3 km/h 30 % 0.0 mm
15:42 34.8 °C 14.7 °C 1015.8 hPa SSW 9.5 km/h 9.5 km/h 30 % 0.0 mm
15:47 34.5 °C 14.4 °C 1015.8 hPa SW 16.7 km/h 16.7 km/h 30 % 0.0 mm
15:52 34.3 °C 14.2 °C 1015.8 hPa South 14.0 km/h 14.0 km/h 30 % 0.0 mm
15:57 34.2 °C 14.2 °C 1015.8 hPa South 11.1 km/h 11.1 km/h 30 % 0.0 mm
15:59 34.4 °C 14.3 °C 1015.8 hPa SSW 9.3 km/h 9.3 km/h 30 % 0.0 mm
16:04 34.4 °C 14.3 °C 1015.8 hPa SW 12.6 km/h 12.6 km/h 30 % 0.0 mm
16:09 34.2 °C 14.2 °C 1015.8 hPa WSW 9.3 km/h 9.3 km/h 30 % 0.0 mm
16:14 34.4 °C 14.3 °C 1015.8 hPa SW 11.1 km/h 11.1 km/h 30 % 0.0 mm
16:19 34.6 °C 14.5 °C 1015.8 hPa SSW 11.1 km/h 11.1 km/h 30 % 0.0 mm
16:24 34.7 °C 14.6 °C 1015.8 hPa SW 9.3 km/h 9.3 km/h 30 % 0.0 mm
16:29 34.7 °C 14.6 °C 1015.8 hPa SW 16.7 km/h 16.7 km/h 30 % 0.0 mm
16:34 34.3 °C 14.2 °C 1015.8 hPa SW 14.8 km/h 14.8 km/h 30 % 0.0 mm
16:39 34.1 °C 14.1 °C 1015.8 hPa SW 14.0 km/h 14.0 km/h 30 % 0.0 mm
16:44 34.4 °C 14.3 °C 1015.8 hPa ESE 11.1 km/h 11.1 km/h 30 % 0.0 mm
16:49 34.1 °C 14.1 °C 1015.8 hPa South 13.0 km/h 13.0 km/h 30 % 0.0 mm
16:54 34.0 °C 14.0 °C 1015.8 hPa South 10.3 km/h 10.3 km/h 30 % 0.0 mm
16:59 34.0 °C 14.0 °C 1015.8 hPa SSE 11.4 km/h 11.4 km/h 30 % 0.0 mm
17:04 33.6 °C 13.6 °C 1016.8 hPa SSW 16.7 km/h 16.7 km/h 30 % 0.0 mm
17:09 33.8 °C 13.8 °C 1016.8 hPa SSE 13.0 km/h 13.0 km/h 30 % 0.0 mm
17:14 33.8 °C 14.3 °C 1016.8 hPa SSW 14.8 km/h 14.8 km/h 31 % 0.0 mm
17:19 33.8 °C 14.3 °C 1015.8 hPa WSW 14.8 km/h 14.8 km/h 31 % 0.0 mm
17:24 33.8 °C 14.3 °C 1015.8 hPa SW 13.0 km/h 13.0 km/h 31 % 0.0 mm
17:29 33.6 °C 14.1 °C 1015.8 hPa SW 13.0 km/h 13.0 km/h 31 % 0.0 mm
17:34 33.8 °C 14.3 °C 1015.8 hPa SW 14.0 km/h 14.0 km/h 31 % 0.0 mm
17:39 33.5 °C 14.6 °C 1015.8 hPa SSE 11.1 km/h 11.1 km/h 32 % 0.0 mm
17:44 33.5 °C 14.6 °C 1015.8 hPa SW 14.8 km/h 14.8 km/h 32 % 0.0 mm
17:49 33.6 °C 14.6 °C 1015.8 hPa South 13.0 km/h 13.0 km/h 32 % 0.0 mm
17:54 33.4 °C 14.4 °C 1015.8 hPa SSW 13.0 km/h 13.0 km/h 32 % 0.0 mm
17:59 32.9 °C 14.0 °C 1015.8 hPa SW 16.9 km/h 16.9 km/h 32 % 0.0 mm
18:04 33.0 °C 14.1 °C 1015.8 hPa WSW 5.6 km/h 6.4 km/h 32 % 0.0 mm
18:09 32.9 °C 14.5 °C 1015.8 hPa SE 5.6 km/h 5.6 km/h 33 % 0.0 mm
18:14 32.8 °C 14.4 °C 1015.8 hPa SW 11.1 km/h 11.1 km/h 33 % 0.0 mm
18:19 32.7 °C 14.3 °C 1015.8 hPa SSW 5.6 km/h 5.6 km/h 33 % 0.0 mm
18:24 32.9 °C 14.5 °C 1015.8 hPa South 7.4 km/h 7.4 km/h 33 % 0.0 mm
18:29 32.7 °C 14.3 °C 1015.8 hPa WSW 9.3 km/h 9.3 km/h 33 % 0.0 mm
18:34 32.5 °C 14.2 °C 1015.8 hPa SW 9.3 km/h 9.3 km/h 33 % 0.0 mm
18:35 32.5 °C 14.2 °C 1015.8 hPa WSW 9.3 km/h 9.3 km/h 33 % 0.0 mm
18:40 32.5 °C 14.6 °C 1015.8 hPa SW 9.3 km/h 9.3 km/h 34 % 0.0 mm
18:45 32.3 °C 14.4 °C 1015.8 hPa SW 13.0 km/h 13.0 km/h 34 % 0.0 mm
18:50 32.2 °C 14.3 °C 1015.8 hPa SSE 11.1 km/h 11.1 km/h 34 % 0.0 mm
18:55 31.9 °C 14.6 °C 1015.8 hPa WSW 9.3 km/h 9.3 km/h 35 % 0.0 mm
18:57 31.6 °C 14.3 °C 1015.8 hPa South 13.0 km/h 13.0 km/h 35 % 0.0 mm
19:02 31.6 °C 14.3 °C 1015.8 hPa West 8.7 km/h 8.7 km/h 35 % 0.0 mm
19:07 31.6 °C 14.3 °C 1015.8 hPa SW 11.1 km/h 11.1 km/h 35 % 0.0 mm
19:12 31.4 °C 14.1 °C 1015.8 hPa SW 10.3 km/h 10.3 km/h 35 % 0.0 mm
19:15 24.8 °C 15.7 °C 1017.8 hPa SW 3.2 km/h 3.2 km/h 57 % 0.0 mm
19:17 31.2 °C 14.3 °C 1015.8 hPa SSW 14.8 km/h 14.8 km/h 36 % 0.0 mm
19:22 31.1 °C 14.3 °C 1015.8 hPa WSW 17.5 km/h 17.5 km/h 36 % 0.0 mm
19:25 24.7 °C 15.6 °C 1017.8 hPa SW 1.6 km/h 3.2 km/h 57 % 0.0 mm
19:27 30.9 °C 14.5 °C 1015.8 hPa WSW 13.0 km/h 13.0 km/h 37 % 0.0 mm
19:32 30.6 °C 14.3 °C 1015.8 hPa SSW 16.7 km/h 16.7 km/h 37 % 0.0 mm
19:35 24.6 °C 15.8 °C 1017.8 hPa WSW 1.6 km/h 3.2 km/h 58 % 0.0 mm
19:37 30.5 °C 14.6 °C 1015.8 hPa SW 11.1 km/h 11.1 km/h 38 % 0.0 mm
19:42 30.5 °C 14.6 °C 1015.8 hPa South 7.4 km/h 7.4 km/h 38 % 0.0 mm
19:45 24.5 °C 15.7 °C 1017.8 hPa SW 3.2 km/h 3.2 km/h 58 % 0.0 mm
19:47 30.3 °C 14.4 °C 1015.8 hPa SW 14.8 km/h 14.8 km/h 38 % 0.0 mm
19:52 30.1 °C 14.2 °C 1015.8 hPa South 9.3 km/h 9.3 km/h 38 % 0.0 mm
19:57 30.0 °C 14.6 °C 1015.8 hPa South 11.1 km/h 11.1 km/h 39 % 0.0 mm
20:02 30.0 °C 14.6 °C 1015.8 hPa SW 6.4 km/h 6.4 km/h 39 % 0.0 mm
20:05 24.5 °C 15.7 °C 1017.8 hPa WSW 1.6 km/h 3.2 km/h 58 % 0.0 mm
20:07 29.9 °C 14.4 °C 1015.8 hPa SSW 7.4 km/h 7.4 km/h 39 % 0.0 mm
20:12 29.6 °C 14.2 °C 1015.8 hPa SSW 9.3 km/h 9.3 km/h 39 % 0.0 mm
20:15 24.5 °C 15.9 °C 1017.8 hPa WSW 3.2 km/h 3.2 km/h 59 % 0.0 mm
20:17 29.5 °C 14.1 °C 1015.8 hPa SSW 7.4 km/h 7.4 km/h 39 % 0.0 mm
20:22 29.4 °C 14.0 °C 1015.8 hPa WSW 9.3 km/h 9.3 km/h 39 % 0.0 mm
20:25 24.3 °C 15.8 °C 1017.8 hPa WSW 1.6 km/h 6.4 km/h 59 % 0.0 mm
20:27 29.2 °C 14.2 °C 1015.8 hPa South 14.8 km/h 14.8 km/h 40 % 0.0 mm
20:32 28.9 °C 14.3 °C 1015.8 hPa West 5.6 km/h 7.6 km/h 41 % 0.0 mm
20:35 24.2 °C 15.9 °C 1017.8 hPa WSW 1.6 km/h 4.8 km/h 60 % 0.0 mm
20:37 28.8 °C 14.2 °C 1015.8 hPa SW 5.6 km/h 5.6 km/h 41 % 0.0 mm
20:42 28.7 °C 14.2 °C 1015.8 hPa SW 9.3 km/h 9.3 km/h 41 % 0.0 mm
20:45 24.1 °C 15.8 °C 1017.8 hPa WSW 1.6 km/h 6.4 km/h 60 % 0.0 mm
20:47 28.5 °C 14.3 °C 1015.8 hPa WSW 9.3 km/h 9.3 km/h 42 % 0.0 mm
20:52 28.4 °C 14.2 °C 1015.8 hPa SSW 7.4 km/h 7.4 km/h 42 % 0.0 mm
20:55 24.1 °C 15.8 °C 1017.8 hPa WSW 1.6 km/h 3.2 km/h 60 % 0.0 mm
20:57 28.1 °C 14.3 °C 1015.8 hPa SW 5.6 km/h 5.6 km/h 43 % 0.0 mm
21:02 28.1 °C 14.3 °C 1015.8 hPa SSW 9.7 km/h 9.7 km/h 43 % 0.0 mm
21:05 23.9 °C 15.9 °C 1017.8 hPa WSW 1.6 km/h 4.8 km/h 61 % 0.0 mm
21:07 27.9 °C 14.5 °C 1015.8 hPa SW 4.2 km/h 4.2 km/h 44 % 0.0 mm
21:12 27.8 °C 14.4 °C 1015.8 hPa SW 9.3 km/h 9.3 km/h 44 % 0.0 mm
21:15 23.8 °C 16.1 °C 1017.8 hPa WSW 1.6 km/h 4.8 km/h 62 % 0.0 mm
21:17 27.6 °C 14.6 °C 1015.8 hPa South 14.8 km/h 14.8 km/h 45 % 0.0 mm
21:22 27.4 °C 14.4 °C 1015.8 hPa SSE 5.6 km/h 5.6 km/h 45 % 0.0 mm
21:25 23.7 °C 16.2 °C 1017.8 hPa WSW 1.6 km/h 3.2 km/h 63 % 0.0 mm
21:27 27.3 °C 14.3 °C 1015.8 hPa SSW 4.2 km/h 4.2 km/h 45 % 0.0 mm
21:32 27.2 °C 14.2 °C 1015.8 hPa WSW 5.6 km/h 5.6 km/h 45 % 0.0 mm
21:35 23.6 °C 16.2 °C 1017.8 hPa SW 1.6 km/h 4.8 km/h 63 % 0.0 mm
21:37 27.0 °C 14.4 °C 1015.8 hPa SSW 7.4 km/h 7.4 km/h 46 % 0.0 mm
21:42 26.9 °C 14.6 °C 1015.8 hPa SW 5.6 km/h 5.6 km/h 47 % 0.0 mm
21:45 23.5 °C 16.1 °C 1017.8 hPa WSW 1.6 km/h 4.8 km/h 63 % 0.0 mm
21:47 26.8 °C 14.6 °C 1015.8 hPa SSE 5.6 km/h 5.6 km/h 47 % 0.0 mm
21:52 26.7 °C 14.8 °C 1015.8 hPa SW 5.6 km/h 5.6 km/h 48 % 0.0 mm
21:55 23.4 °C 15.9 °C 1016.8 hPa WSW 1.6 km/h 3.2 km/h 63 % 0.0 mm
21:57 26.6 °C 15.0 °C 1015.8 hPa SW 2.6 km/h 2.6 km/h 49 % 0.0 mm
22:02 26.4 °C 14.8 °C 1015.8 hPa WSW 5.6 km/h 5.6 km/h 49 % 0.0 mm
22:05 23.3 °C 15.8 °C 1016.8 hPa WSW 3.2 km/h 3.2 km/h 63 % 0.0 mm
22:07 26.3 °C 14.7 °C 1015.8 hPa SSW 5.6 km/h 5.6 km/h 49 % 0.0 mm
22:12 26.2 °C 14.9 °C 1015.8 hPa Calm     50 % 0.0 mm
22:15 23.0 °C 15.8 °C 1016.8 hPa Calm   3.2 km/h 64 % 0.0 mm
22:17 26.1 °C 14.9 °C 1015.8 hPa SSW 7.4 km/h 7.4 km/h 50 % 0.0 mm
22:22 26.1 °C 15.2 °C 1015.8 hPa SW 3.9 km/h 3.9 km/h 51 % 0.0 mm
22:25 22.9 °C 15.7 °C 1016.8 hPa SW 1.6 km/h 1.6 km/h 64 % 0.0 mm
22:27 26.0 °C 15.1 °C 1015.8 hPa SW 1.9 km/h   51 % 0.0 mm
22:32 26.0 °C 15.1 °C 1016.8 hPa WSW 5.6 km/h 5.6 km/h 51 % 0.0 mm
22:35 22.9 °C 15.7 °C 1016.8 hPa WSW 1.6 km/h 3.2 km/h 64 % 0.0 mm
22:37 25.9 °C 15.0 °C 1016.8 hPa SSW 3.7 km/h 3.7 km/h 51 % 0.0 mm
22:42 25.8 °C 15.2 °C 1016.8 hPa SW 3.7 km/h 3.7 km/h 52 % 0.0 mm
22:45 25.8 °C 15.2 °C 1016.8 hPa Calm     52 % 0.0 mm
22:48 25.8 °C 15.2 °C 1016.8 hPa SW 3.7 km/h 3.7 km/h 52 % 0.0 mm
22:50 25.7 °C 15.1 °C 1016.8 hPa SW 7.4 km/h 7.4 km/h 52 % 0.0 mm
22:55 25.6 °C 15.0 °C 1016.8 hPa SW 3.9 km/h 3.9 km/h 52 % 0.0 mm
23:00 25.6 °C 15.3 °C 1017.8 hPa SW 1.9 km/h   53 % 0.0 mm
23:05 25.5 °C 15.2 °C 1017.8 hPa WSW 1.9 km/h   53 % 0.0 mm
23:10 25.5 °C 15.5 °C 1017.8 hPa SSE 4.2 km/h   54 % 0.0 mm
23:15 25.4 °C 15.4 °C 1017.8 hPa South 1.9 km/h   54 % 0.0 mm
23:20 25.4 °C 15.4 °C 1017.8 hPa West 1.4 km/h   54 % 0.0 mm
23:25 25.4 °C 15.4 °C 1017.8 hPa WSW 2.3 km/h 2.3 km/h 54 % 0.0 mm
23:30 25.3 °C 15.3 °C 1017.8 hPa SW 3.9 km/h 3.9 km/h 54 % 0.0 mm
23:35 25.3 °C 15.3 °C 1017.8 hPa SW 3.9 km/h 3.9 km/h 54 % 0.0 mm
23:40 25.2 °C 15.5 °C 1017.8 hPa SW 3.9 km/h   55 % 0.0 mm
23:45 25.2 °C 15.5 °C 1017.8 hPa WSW 1.9 km/h 1.9 km/h 55 % 0.0 mm
23:50 25.1 °C 15.1 °C 1017.8 hPa SW 5.6 km/h 5.6 km/h 54 % 0.0 mm
23:55 25.0 °C 15.3 °C 1017.8 hPa SW 3.7 km/h 3.7 km/h 55 % 0.0 mm
Meteo Sesrovires
Elogis d' Weather Underground - 3.5 mb

Guio original per  Jim McMurry - jmcmurry@mwt.net Adaptat per a la plantilla per  Wim van der Kuil - Leuven-Template.eu

Trobareu la nostra informacio del temps tambe a:

Weather Underground

AWEKAS